createdAt,value
2022-12-04T00:00:44.266Z,51.011013
2022-12-04T00:01:44.223Z,51.011021
2022-12-04T00:02:44.351Z,51.010998
2022-12-04T00:03:44.200Z,51.011013
2022-12-04T00:04:44.246Z,51.011013
2022-12-04T00:05:44.191Z,51.010963
2022-12-04T00:06:44.216Z,51.011021
2022-12-04T00:07:44.213Z,51.010944
2022-12-04T00:08:44.168Z,51.010944
2022-12-04T00:09:44.166Z,51.010876
2022-12-04T00:10:44.397Z,51.010891
2022-12-04T00:11:44.174Z,51.010956
2022-12-04T00:12:44.148Z,51.010994
2022-12-04T00:13:44.208Z,51.011036
2022-12-04T00:15:16.561Z,51.011101
2022-12-04T00:15:46.140Z,51.011009
2022-12-04T00:16:44.173Z,51.011051
2022-12-04T00:17:44.144Z,51.010883
2022-12-04T00:18:44.139Z,51.010971
2022-12-04T00:19:44.123Z,51.010960
2022-12-04T00:20:44.182Z,51.010906
2022-12-04T00:21:44.093Z,51.010979
2022-12-04T00:22:44.093Z,51.010906
2022-12-04T00:23:44.117Z,51.010967
2022-12-04T00:24:44.077Z,51.011005
2022-12-04T00:25:44.059Z,51.010986
2022-12-04T00:26:44.208Z,51.010994
2022-12-04T00:27:44.052Z,51.011005
2022-12-04T00:28:44.064Z,51.010963
2022-12-04T00:29:44.084Z,51.011017
2022-12-04T00:30:44.033Z,51.010971
2022-12-04T00:31:44.162Z,51.011009
2022-12-04T00:32:44.047Z,51.011005
2022-12-04T00:33:44.022Z,51.011032
2022-12-04T00:34:44.011Z,51.010975
2022-12-04T00:35:44.038Z,51.011036
2022-12-04T00:36:45.027Z,51.011047
2022-12-04T00:37:44.012Z,51.011200
2022-12-04T00:38:44.018Z,51.011131
2022-12-04T00:39:44.009Z,51.010998
2022-12-04T00:40:43.981Z,51.011055
2022-12-04T00:41:43.983Z,51.011066
2022-12-04T00:42:43.971Z,51.011005
2022-12-04T00:43:43.967Z,51.011005
2022-12-04T00:44:43.953Z,51.011009
2022-12-04T00:45:44.466Z,51.011059
2022-12-04T00:46:43.955Z,51.010983
2022-12-04T00:47:44.724Z,51.011013
2022-12-04T00:48:43.968Z,51.010983
2022-12-04T00:49:43.916Z,51.011021
2022-12-04T00:50:43.934Z,51.011040
2022-12-04T00:51:43.940Z,51.011032
2022-12-04T00:52:43.894Z,51.011028
2022-12-04T00:53:43.922Z,51.011040
2022-12-04T00:54:43.895Z,51.011028
2022-12-04T00:55:43.901Z,51.011032
2022-12-04T00:56:43.935Z,51.011005
2022-12-04T00:57:43.931Z,51.011013
2022-12-04T00:58:43.875Z,51.011032
2022-12-04T00:59:43.863Z,51.011040
2022-12-04T01:00:43.936Z,51.010952
2022-12-04T01:01:43.939Z,51.010998
2022-12-04T01:02:43.924Z,51.011036
2022-12-04T01:03:43.863Z,51.011005
2022-12-04T01:04:43.859Z,51.011017
2022-12-04T01:05:43.828Z,51.011063
2022-12-04T01:06:43.827Z,51.011070
2022-12-04T01:07:43.857Z,51.011002
2022-12-04T01:08:43.838Z,51.011055
2022-12-04T01:09:43.857Z,51.011005
2022-12-04T01:10:43.808Z,51.010994
2022-12-04T01:11:43.802Z,51.010933
2022-12-04T01:12:43.788Z,51.010990
2022-12-04T01:13:43.818Z,51.011036
2022-12-04T01:14:43.811Z,51.011143
2022-12-04T01:15:43.787Z,51.011105
2022-12-04T01:16:43.947Z,51.011074
2022-12-04T01:17:43.755Z,51.011047
2022-12-04T01:18:43.752Z,51.011086
2022-12-04T01:19:43.772Z,51.010983
2022-12-04T01:20:43.741Z,51.011009
2022-12-04T01:21:43.740Z,51.011009
2022-12-04T01:22:43.729Z,51.011108
2022-12-04T01:23:43.750Z,51.011066
2022-12-04T01:24:43.745Z,51.011063
2022-12-04T01:25:43.710Z,51.011021
2022-12-04T01:26:43.696Z,51.011086
2022-12-04T01:27:43.737Z,51.011059
2022-12-04T01:28:43.748Z,51.011036
2022-12-04T01:29:43.703Z,51.011074
2022-12-04T01:30:43.721Z,51.011059
2022-12-04T01:31:43.802Z,51.011009
2022-12-04T01:32:43.680Z,51.011051
2022-12-04T01:33:43.704Z,51.011066
2022-12-04T01:34:43.753Z,51.011105
2022-12-04T01:35:43.666Z,51.011082
2022-12-04T01:36:43.632Z,51.011055
2022-12-04T01:37:43.641Z,51.011059
2022-12-04T01:38:43.626Z,51.011074
2022-12-04T01:39:43.634Z,51.011105
2022-12-04T01:40:43.697Z,51.011051
2022-12-04T01:41:44.647Z,51.011070
2022-12-04T01:42:43.620Z,51.011105
2022-12-04T01:43:43.609Z,51.011089
2022-12-04T01:44:43.674Z,51.011101
2022-12-04T01:45:43.686Z,51.011097
2022-12-04T01:46:43.632Z,51.011063
2022-12-04T01:47:43.576Z,51.011101
2022-12-04T01:48:43.589Z,51.010944
2022-12-04T01:49:43.591Z,51.011055
2022-12-04T01:50:43.602Z,51.011063
2022-12-04T01:51:43.592Z,51.011082
2022-12-04T01:52:43.565Z,51.011078
2022-12-04T01:53:43.558Z,51.011055
2022-12-04T01:54:43.536Z,51.011086
2022-12-04T01:55:43.527Z,51.011086
2022-12-04T01:56:44.567Z,51.011082
2022-12-04T01:57:43.515Z,51.011044
2022-12-04T01:58:43.539Z,51.011066
2022-12-04T01:59:43.514Z,51.011044
2022-12-04T02:00:44.897Z,51.011066
2022-12-04T02:01:43.545Z,51.011082
2022-12-04T02:02:43.554Z,51.011044
2022-12-04T02:03:43.508Z,51.011024
2022-12-04T02:04:43.483Z,51.011066
2022-12-04T02:05:43.499Z,51.011040
2022-12-04T02:06:43.449Z,51.011024
2022-12-04T02:07:43.483Z,51.011036
2022-12-04T02:08:43.499Z,51.011040
2022-12-04T02:09:43.497Z,51.011059
2022-12-04T02:10:43.437Z,51.011059
2022-12-04T02:11:43.429Z,51.011040
2022-12-04T02:12:43.462Z,51.011021
2022-12-04T02:13:43.416Z,51.011028
2022-12-04T02:14:43.485Z,51.011047
2022-12-04T02:15:43.417Z,51.011044
2022-12-04T02:16:43.570Z,51.011013
2022-12-04T02:17:43.389Z,51.011028
2022-12-04T02:18:43.402Z,51.011036
2022-12-04T02:19:43.404Z,51.011055
2022-12-04T02:20:43.395Z,51.011028
2022-12-04T02:21:43.394Z,51.010967
2022-12-04T02:22:43.390Z,51.010979
2022-12-04T02:23:43.386Z,51.011017
2022-12-04T02:24:49.633Z,51.011059
2022-12-04T02:25:45.366Z,51.011078
2022-12-04T02:26:43.376Z,51.011066
2022-12-04T02:27:43.354Z,51.011028
2022-12-04T02:28:43.324Z,51.011017
2022-12-04T02:29:43.360Z,51.011055
2022-12-04T02:30:43.373Z,51.011002
2022-12-04T02:31:43.323Z,51.011040
2022-12-04T02:32:43.308Z,51.011040
2022-12-04T02:33:43.321Z,51.011051
2022-12-04T02:34:43.338Z,51.011055
2022-12-04T02:35:43.307Z,51.011032
2022-12-04T02:36:43.324Z,51.011047
2022-12-04T02:37:43.331Z,51.011047
2022-12-04T02:38:43.266Z,51.011066
2022-12-04T02:39:43.273Z,51.011005
2022-12-04T02:40:43.277Z,51.011017
2022-12-04T02:41:43.275Z,51.011028
2022-12-04T02:42:43.288Z,51.011055
2022-12-04T02:43:43.256Z,51.011051
2022-12-04T02:44:43.288Z,51.011036
2022-12-04T02:45:43.304Z,51.010983
2022-12-04T02:46:43.261Z,51.011040
2022-12-04T02:47:43.277Z,51.011002
2022-12-04T02:48:43.232Z,51.011066
2022-12-04T02:49:43.221Z,51.011112
2022-12-04T02:50:43.222Z,51.011032
2022-12-04T02:51:43.197Z,51.010986
2022-12-04T02:52:43.229Z,51.011082
2022-12-04T02:53:43.223Z,51.011032
2022-12-04T02:54:43.209Z,51.010937
2022-12-04T02:55:43.178Z,51.010998
2022-12-04T02:56:43.181Z,51.011036
2022-12-04T02:57:43.182Z,51.010933
2022-12-04T02:58:43.176Z,51.011021
2022-12-04T02:59:43.164Z,51.011024
2022-12-04T03:00:43.184Z,51.011070
2022-12-04T03:01:43.197Z,51.011040
2022-12-04T03:02:43.184Z,51.011017
2022-12-04T03:03:43.134Z,51.011024
2022-12-04T03:04:43.227Z,51.010941
2022-12-04T03:05:43.121Z,51.010910
2022-12-04T03:06:43.109Z,51.010944
2022-12-04T03:07:43.186Z,51.011024
2022-12-04T03:08:43.243Z,51.011078
2022-12-04T03:09:43.160Z,51.010891
2022-12-04T03:10:43.103Z,51.011009
2022-12-04T03:11:43.097Z,51.010857
2022-12-04T03:12:43.074Z,51.010895
2022-12-04T03:13:43.097Z,51.010963
2022-12-04T03:14:43.061Z,51.011024
2022-12-04T03:15:43.075Z,51.011055
2022-12-04T03:16:43.087Z,51.010925
2022-12-04T03:17:43.064Z,51.010948
2022-12-04T03:18:43.081Z,51.011005
2022-12-04T03:19:43.033Z,51.011059
2022-12-04T03:20:43.078Z,51.011044
2022-12-04T03:21:43.010Z,51.010944
2022-12-04T03:22:43.021Z,51.010986
2022-12-04T03:23:43.011Z,51.011032
2022-12-04T03:24:43.017Z,51.010994
2022-12-04T03:25:43.019Z,51.010952
2022-12-04T03:26:43.010Z,51.011024
2022-12-04T03:27:42.992Z,51.011086
2022-12-04T03:28:42.981Z,51.011021
2022-12-04T03:29:42.963Z,51.010990
2022-12-04T03:30:43.039Z,51.010956
2022-12-04T03:31:42.974Z,51.010956
2022-12-04T03:32:42.947Z,51.010971
2022-12-04T03:33:42.961Z,51.010990
2022-12-04T03:34:42.921Z,51.011032
2022-12-04T03:35:43.008Z,51.011047
2022-12-04T03:36:43.053Z,51.011002
2022-12-04T03:37:42.948Z,51.011013
2022-12-04T03:38:42.969Z,51.011036
2022-12-04T03:39:42.924Z,51.010983
2022-12-04T03:40:42.924Z,51.010983
2022-12-04T03:41:49.498Z,51.010994
2022-12-04T03:42:44.901Z,51.010956
2022-12-04T03:43:42.915Z,51.010967
2022-12-04T03:44:42.926Z,51.010941
2022-12-04T03:45:42.906Z,51.010971
2022-12-04T03:46:42.903Z,51.010952
2022-12-04T03:47:42.884Z,51.010941
2022-12-04T03:48:42.866Z,51.010948
2022-12-04T03:49:42.870Z,51.010990
2022-12-04T03:50:42.847Z,51.010975
2022-12-04T03:51:42.880Z,51.010963
2022-12-04T03:52:42.864Z,51.010975
2022-12-04T03:53:42.855Z,51.010960
2022-12-04T03:54:42.861Z,51.011032
2022-12-04T03:55:42.806Z,51.011002
2022-12-04T03:56:42.819Z,51.011040
2022-12-04T03:57:42.805Z,51.010979
2022-12-04T03:58:42.801Z,51.010967
2022-12-04T03:59:42.818Z,51.011017
2022-12-04T04:00:42.812Z,51.011024
2022-12-04T04:01:42.839Z,51.011055
2022-12-04T04:02:42.802Z,51.010983
2022-12-04T04:03:42.840Z,51.010971
2022-12-04T04:04:42.789Z,51.010983
2022-12-04T04:05:42.769Z,51.010983
2022-12-04T04:06:42.746Z,51.010983
2022-12-04T04:07:42.790Z,51.011063
2022-12-04T04:08:42.726Z,51.011021
2022-12-04T04:09:42.735Z,51.011143
2022-12-04T04:10:42.718Z,51.011032
2022-12-04T04:11:42.704Z,51.010990
2022-12-04T04:12:42.694Z,51.010921
2022-12-04T04:13:42.692Z,51.010929
2022-12-04T04:14:42.693Z,51.011093
2022-12-04T04:15:42.802Z,51.010910
2022-12-04T04:16:42.736Z,51.010983
2022-12-04T04:17:42.671Z,51.011002
2022-12-04T04:18:42.673Z,51.010990
2022-12-04T04:19:42.682Z,51.011051
2022-12-04T04:20:42.678Z,51.011009
2022-12-04T04:21:42.651Z,51.010941
2022-12-04T04:22:42.686Z,51.011055
2022-12-04T04:23:43.637Z,51.010986
2022-12-04T04:24:42.625Z,51.011051
2022-12-04T04:25:42.629Z,51.011093
2022-12-04T04:26:42.657Z,51.011066
2022-12-04T04:27:42.630Z,51.011036
2022-12-04T04:28:42.601Z,51.010960
2022-12-04T04:29:43.857Z,51.010925
2022-12-04T04:30:42.644Z,51.010963
2022-12-04T04:31:42.615Z,51.010952
2022-12-04T04:32:42.586Z,51.010998
2022-12-04T04:33:42.587Z,51.011021
2022-12-04T04:34:42.625Z,51.010963
2022-12-04T04:35:42.563Z,51.011044
2022-12-04T04:36:42.605Z,51.011017
2022-12-04T04:37:42.562Z,51.010944
2022-12-04T04:38:42.535Z,51.010963
2022-12-04T04:39:42.544Z,51.011013
2022-12-04T04:40:42.526Z,51.010990
2022-12-04T04:41:42.520Z,51.011105
2022-12-04T04:42:42.573Z,51.010990
2022-12-04T04:43:42.540Z,51.010983
2022-12-04T04:44:42.529Z,51.010952
2022-12-04T04:45:42.523Z,51.011108
2022-12-04T04:46:42.581Z,51.011024
2022-12-04T04:47:42.519Z,51.011044
2022-12-04T04:48:42.526Z,51.011055
2022-12-04T04:49:42.507Z,51.011169
2022-12-04T04:50:42.474Z,51.010975
2022-12-04T04:51:42.488Z,51.011002
2022-12-04T04:52:42.460Z,51.010994
2022-12-04T04:53:42.492Z,51.010956
2022-12-04T04:54:42.452Z,51.010967
2022-12-04T04:55:42.439Z,51.010986
2022-12-04T04:56:42.457Z,51.010994
2022-12-04T04:57:42.429Z,51.010994
2022-12-04T04:58:42.447Z,51.011017
2022-12-04T04:59:42.429Z,51.011017
2022-12-04T05:00:42.406Z,51.011028
2022-12-04T05:01:42.465Z,51.011009
2022-12-04T05:02:42.409Z,51.011021
2022-12-04T05:03:42.381Z,51.010986
2022-12-04T05:04:42.403Z,51.011040
2022-12-04T05:05:42.404Z,51.010960
2022-12-04T05:06:42.358Z,51.010967
2022-12-04T05:07:42.443Z,51.010998
2022-12-04T05:08:42.364Z,51.011032
2022-12-04T05:09:42.358Z,51.011021
2022-12-04T05:10:42.378Z,51.010975
2022-12-04T05:11:42.403Z,51.011047
2022-12-04T05:12:42.336Z,51.011097
2022-12-04T05:13:42.338Z,51.010967
2022-12-04T05:14:42.344Z,51.010952
2022-12-04T05:15:42.373Z,51.010918
2022-12-04T05:16:42.344Z,51.010979
2022-12-04T05:17:42.307Z,51.010990
2022-12-04T05:18:42.342Z,51.011002
2022-12-04T05:19:42.343Z,51.011032
2022-12-04T05:20:42.297Z,51.010986
2022-12-04T05:21:42.333Z,51.010994
2022-12-04T05:22:42.263Z,51.010944
2022-12-04T05:23:42.271Z,51.010986
2022-12-04T05:24:42.295Z,51.011002
2022-12-04T05:25:42.254Z,51.010994
2022-12-04T05:26:42.252Z,51.011002
2022-12-04T05:27:42.278Z,51.011024
2022-12-04T05:28:43.230Z,51.011021
2022-12-04T05:29:42.335Z,51.011066
2022-12-04T05:30:42.233Z,51.010986
2022-12-04T05:31:42.274Z,51.011002
2022-12-04T05:32:42.244Z,51.010971
2022-12-04T05:33:42.207Z,51.010956
2022-12-04T05:34:42.220Z,51.010956
2022-12-04T05:35:42.195Z,51.011051
2022-12-04T05:36:42.254Z,51.011021
2022-12-04T05:37:42.209Z,51.011024
2022-12-04T05:38:42.191Z,51.010971
2022-12-04T05:39:42.173Z,51.010838
2022-12-04T05:40:42.204Z,51.011013
2022-12-04T05:41:42.170Z,51.011070
2022-12-04T05:42:42.195Z,51.011002
2022-12-04T05:43:42.203Z,51.011047
2022-12-04T05:44:42.131Z,51.011112
2022-12-04T05:45:42.165Z,51.011032
2022-12-04T05:46:42.438Z,51.011005
2022-12-04T05:47:42.163Z,51.010899
2022-12-04T05:48:42.133Z,51.011002
2022-12-04T05:49:42.099Z,51.010963
2022-12-04T05:50:42.126Z,51.010929
2022-12-04T05:51:42.099Z,51.011005
2022-12-04T05:52:42.087Z,51.011032
2022-12-04T05:53:42.107Z,51.011036
2022-12-04T05:54:42.065Z,51.010971
2022-12-04T05:55:42.113Z,51.010979
2022-12-04T05:56:42.072Z,51.010994
2022-12-04T05:57:42.065Z,51.011017
2022-12-04T05:58:42.049Z,51.011017
2022-12-04T05:59:42.104Z,51.011005
2022-12-04T06:00:42.056Z,51.010895
2022-12-04T06:01:42.103Z,51.010929
2022-12-04T06:02:42.135Z,51.010906
2022-12-04T06:03:42.028Z,51.010941
2022-12-04T06:04:42.077Z,51.010971
2022-12-04T06:05:42.013Z,51.010986
2022-12-04T06:06:42.004Z,51.011051
2022-12-04T06:07:42.030Z,51.010967
2022-12-04T06:08:41.993Z,51.010963
2022-12-04T06:09:42.019Z,51.010925
2022-12-04T06:10:42.002Z,51.010971
2022-12-04T06:11:42.964Z,51.010979
2022-12-04T06:12:41.973Z,51.010948
2022-12-04T06:13:41.961Z,51.010952
2022-12-04T06:14:41.985Z,51.010983
2022-12-04T06:15:41.992Z,51.010971
2022-12-04T06:16:42.065Z,51.010986
2022-12-04T06:17:41.933Z,51.010994
2022-12-04T06:18:41.947Z,51.010983
2022-12-04T06:19:41.924Z,51.011024
2022-12-04T06:20:41.999Z,51.011028
2022-12-04T06:21:41.911Z,51.010986
2022-12-04T06:22:41.887Z,51.011021
2022-12-04T06:23:41.906Z,51.011051
2022-12-04T06:24:41.901Z,51.011078
2022-12-04T06:25:41.874Z,51.011028
2022-12-04T06:27:03.872Z,51.011024
2022-12-04T06:27:43.861Z,51.011070
2022-12-04T06:28:41.840Z,51.011066
2022-12-04T06:29:41.851Z,51.011032
2022-12-04T06:30:41.876Z,51.011024
2022-12-04T06:31:41.974Z,51.011024
2022-12-04T06:32:41.848Z,51.011051
2022-12-04T06:33:41.878Z,51.011028
2022-12-04T06:34:41.810Z,51.010967
2022-12-04T06:35:41.827Z,51.011013
2022-12-04T06:36:41.794Z,51.010979
2022-12-04T06:37:41.841Z,51.011013
2022-12-04T06:38:41.807Z,51.010960
2022-12-04T06:39:41.795Z,51.011005
2022-12-04T06:40:41.784Z,51.010937
2022-12-04T06:41:41.796Z,51.010887
2022-12-04T06:42:41.824Z,51.011013
2022-12-04T06:43:41.763Z,51.011059
2022-12-04T06:44:41.812Z,51.010948
2022-12-04T06:45:41.852Z,51.011028
2022-12-04T06:46:46.440Z,51.011013
2022-12-04T06:47:43.750Z,51.011078
2022-12-04T06:48:41.725Z,51.011127
2022-12-04T06:49:41.731Z,51.011036
2022-12-04T06:50:41.989Z,51.010956
2022-12-04T06:51:41.709Z,51.011013
2022-12-04T06:52:41.707Z,51.011013
2022-12-04T06:53:41.711Z,51.010983
2022-12-04T06:54:41.706Z,51.011051
2022-12-04T06:55:41.739Z,51.010948
2022-12-04T06:56:41.697Z,51.010948
2022-12-04T06:57:41.691Z,51.010967
2022-12-04T06:58:41.689Z,51.010975
2022-12-04T06:59:41.702Z,51.010960
2022-12-04T07:00:41.758Z,51.011089
2022-12-04T07:01:41.718Z,51.011131
2022-12-04T07:02:41.682Z,51.011078
2022-12-04T07:03:44.878Z,51.011051
2022-12-04T07:04:43.672Z,51.011055
2022-12-04T07:05:41.619Z,51.011047
2022-12-04T07:06:42.652Z,51.011074
2022-12-04T07:07:41.627Z,51.011005
2022-12-04T07:08:41.624Z,51.011173
2022-12-04T07:09:41.602Z,51.011345
2022-12-04T07:10:41.621Z,51.011269
2022-12-04T07:11:41.625Z,51.011131
2022-12-04T07:12:41.607Z,51.011028
2022-12-04T07:13:41.622Z,51.011036
2022-12-04T07:14:41.594Z,51.011059
2022-12-04T07:15:41.567Z,51.011089
2022-12-04T07:16:42.328Z,51.011227
2022-12-04T07:17:41.589Z,51.011055
2022-12-04T07:18:41.565Z,51.011009
2022-12-04T07:19:41.544Z,51.010937
2022-12-04T07:20:41.543Z,51.011070
2022-12-04T07:21:41.525Z,51.011101
2022-12-04T07:22:41.566Z,51.011021
2022-12-04T07:23:41.566Z,51.011021
2022-12-04T07:24:41.532Z,51.010891
2022-12-04T07:25:41.500Z,51.010979
2022-12-04T07:26:41.507Z,51.010841
2022-12-04T07:27:41.514Z,51.010925
2022-12-04T07:28:41.523Z,51.010952
2022-12-04T07:29:41.491Z,51.011066
2022-12-04T07:30:41.487Z,51.011127
2022-12-04T07:31:41.511Z,51.010910
2022-12-04T07:32:41.462Z,51.010929
2022-12-04T07:33:41.486Z,51.011074
2022-12-04T07:34:41.572Z,51.010990
2022-12-04T07:35:41.453Z,51.011005
2022-12-04T07:36:41.510Z,51.011002
2022-12-04T07:37:41.423Z,51.010921
2022-12-04T07:38:41.410Z,51.011028
2022-12-04T07:39:41.489Z,51.010994
2022-12-04T07:40:41.410Z,51.010990
2022-12-04T07:41:41.393Z,51.011116
2022-12-04T07:42:41.403Z,51.011093
2022-12-04T07:43:41.407Z,51.010944
2022-12-04T07:44:41.429Z,51.011086
2022-12-04T07:45:41.457Z,51.011234
2022-12-04T07:46:41.388Z,51.011024
2022-12-04T07:47:41.389Z,51.010983
2022-12-04T07:48:41.387Z,51.010937
2022-12-04T07:49:41.445Z,51.010914
2022-12-04T07:50:41.427Z,51.010975
2022-12-04T07:51:41.379Z,51.011017
2022-12-04T07:52:41.333Z,51.011066
2022-12-04T07:53:41.363Z,51.011032
2022-12-04T07:54:41.330Z,51.010975
2022-12-04T07:55:41.339Z,51.011055
2022-12-04T07:56:41.352Z,51.011059
2022-12-04T07:57:41.306Z,51.011101
2022-12-04T07:58:41.299Z,51.010975
2022-12-04T07:59:41.329Z,51.011108
2022-12-04T08:00:41.348Z,51.011044
2022-12-04T08:01:41.324Z,51.011063
2022-12-04T08:02:41.281Z,51.011105
2022-12-04T08:03:47.165Z,51.011005
2022-12-04T08:04:43.319Z,51.011047
2022-12-04T08:05:41.297Z,51.011009
2022-12-04T08:06:41.299Z,51.011028
2022-12-04T08:07:41.309Z,51.010971
2022-12-04T08:08:41.249Z,51.010921
2022-12-04T08:09:41.249Z,51.010986
2022-12-04T08:10:41.220Z,51.010983
2022-12-04T08:11:41.274Z,51.011028
2022-12-04T08:12:41.230Z,51.011021
2022-12-04T08:13:41.239Z,51.011040
2022-12-04T08:14:41.255Z,51.011047
2022-12-04T08:15:41.244Z,51.010952
2022-12-04T08:16:41.239Z,51.010948
2022-12-04T08:17:41.208Z,51.011036
2022-12-04T08:18:41.209Z,51.011005
2022-12-04T08:19:41.207Z,51.010998
2022-12-04T08:20:41.217Z,51.010983
2022-12-04T08:21:41.163Z,51.010960
2022-12-04T08:22:41.187Z,51.011013
2022-12-04T08:23:41.176Z,51.010975
2022-12-04T08:24:41.195Z,51.010849
2022-12-04T08:25:41.178Z,51.010910
2022-12-04T08:26:41.156Z,51.010845
2022-12-04T08:27:45.940Z,51.010994
2022-12-04T08:28:43.138Z,51.010899
2022-12-04T08:29:41.139Z,51.010933
2022-12-04T08:30:41.173Z,51.011013
2022-12-04T08:31:41.181Z,51.010994
2022-12-04T08:32:41.100Z,51.011059
2022-12-04T08:33:41.122Z,51.011002
2022-12-04T08:34:41.087Z,51.011036
2022-12-04T08:35:41.071Z,51.010979
2022-12-04T08:36:41.098Z,51.011040
2022-12-04T08:37:41.079Z,51.011024
2022-12-04T08:38:41.093Z,51.011063
2022-12-04T08:39:41.087Z,51.011158
2022-12-04T08:40:41.078Z,51.011013
2022-12-04T08:41:41.077Z,51.011021
2022-12-04T08:42:41.079Z,51.010921
2022-12-04T08:43:41.059Z,51.010960
2022-12-04T08:44:41.041Z,51.010990
2022-12-04T08:45:41.114Z,51.010994
2022-12-04T08:46:41.180Z,51.011055
2022-12-04T08:47:41.015Z,51.011055
2022-12-04T08:48:41.019Z,51.011051
2022-12-04T08:49:40.996Z,51.011044
2022-12-04T08:50:41.063Z,51.011032
2022-12-04T08:51:41.043Z,51.011032
2022-12-04T08:52:40.993Z,51.011059
2022-12-04T08:53:40.982Z,51.011070
2022-12-04T08:54:40.975Z,51.011074
2022-12-04T08:55:41.032Z,51.011044
2022-12-04T08:56:41.322Z,51.011005
2022-12-04T08:57:41.952Z,51.011002
2022-12-04T08:58:40.945Z,51.011005
2022-12-04T08:59:40.954Z,51.011009
2022-12-04T09:00:40.978Z,51.011021
2022-12-04T09:01:40.996Z,51.011047
2022-12-04T09:02:40.934Z,51.011131
2022-12-04T09:03:40.936Z,51.011017
2022-12-04T09:04:41.028Z,51.011024
2022-12-04T09:05:40.945Z,51.011047
2022-12-04T09:06:40.921Z,51.011032
2022-12-04T09:07:40.990Z,51.010994
2022-12-04T09:08:40.884Z,51.010944
2022-12-04T09:09:55.430Z,51.010944
2022-12-04T09:10:42.908Z,51.010956
2022-12-04T09:11:40.905Z,51.011024
2022-12-04T09:12:40.871Z,51.011040
2022-12-04T09:13:40.870Z,51.010967
2022-12-04T09:14:40.880Z,51.011021
2022-12-04T09:15:40.898Z,51.011051
2022-12-04T09:16:40.841Z,51.011005
2022-12-04T09:17:40.844Z,51.010998
2022-12-04T09:18:40.858Z,51.011017
2022-12-04T09:19:40.944Z,51.010952
2022-12-04T09:20:40.825Z,51.011021
2022-12-04T09:21:40.802Z,51.011013
2022-12-04T09:23:02.820Z,51.011047
2022-12-04T09:23:42.867Z,51.010990
2022-12-04T09:24:40.787Z,51.010952
2022-12-04T09:25:40.783Z,51.011074
2022-12-04T09:26:40.795Z,51.011074
2022-12-04T09:27:40.763Z,51.011005
2022-12-04T09:28:40.793Z,51.010983
2022-12-04T09:29:40.755Z,51.010838
2022-12-04T09:30:40.852Z,51.010960
2022-12-04T09:31:40.776Z,51.010967
2022-12-04T09:32:40.761Z,51.010937
2022-12-04T09:33:40.746Z,51.011051
2022-12-04T09:34:40.731Z,51.011040
2022-12-04T09:35:40.749Z,51.010921
2022-12-04T09:36:40.787Z,51.011089
2022-12-04T09:37:40.724Z,51.010918
2022-12-04T09:38:40.719Z,51.011082
2022-12-04T09:39:40.716Z,51.011070
2022-12-04T09:40:40.725Z,51.011089
2022-12-04T09:41:41.683Z,51.011093
2022-12-04T09:42:40.683Z,51.011066
2022-12-04T09:43:40.715Z,51.011044
2022-12-04T09:44:40.671Z,51.010880
2022-12-04T09:45:40.677Z,51.011036
2022-12-04T09:46:40.728Z,51.010880
2022-12-04T09:47:40.674Z,51.010918
2022-12-04T09:48:40.657Z,51.011093
2022-12-04T09:49:40.956Z,51.011013
2022-12-04T09:50:40.615Z,51.010918
2022-12-04T09:51:40.677Z,51.010975
2022-12-04T09:52:40.638Z,51.011086
2022-12-04T09:53:40.650Z,51.011139
2022-12-04T09:54:41.609Z,51.011032
2022-12-04T09:55:40.603Z,51.011005
2022-12-04T09:56:40.614Z,51.011040
2022-12-04T09:57:40.573Z,51.011063
2022-12-04T09:58:40.577Z,51.011135
2022-12-04T09:59:40.577Z,51.011314
2022-12-04T10:00:40.557Z,51.010925
2022-12-04T10:01:40.587Z,51.011063
2022-12-04T10:02:40.664Z,51.011097
2022-12-04T10:03:40.673Z,51.011013
2022-12-04T10:04:40.607Z,51.011078
2022-12-04T10:05:40.535Z,51.010933
2022-12-04T10:06:40.571Z,51.011341
2022-12-04T10:07:40.566Z,51.011265
2022-12-04T10:08:40.584Z,51.011333
2022-12-04T10:09:40.532Z,51.011318
2022-12-04T10:10:40.552Z,51.011539
2022-12-04T10:11:40.493Z,51.011482
2022-12-04T10:12:40.475Z,51.011478
2022-12-04T10:13:40.536Z,51.011543
2022-12-04T10:14:42.501Z,51.011395
2022-12-04T10:15:40.534Z,51.011379
2022-12-04T10:16:40.473Z,51.011257
2022-12-04T10:17:40.501Z,51.011150
2022-12-04T10:18:40.500Z,51.010895
2022-12-04T10:19:40.485Z,51.010841
2022-12-04T10:20:40.436Z,51.010773
2022-12-04T10:21:40.420Z,51.011047
2022-12-04T10:22:40.475Z,51.011028
2022-12-04T10:23:40.413Z,51.011269
2022-12-04T10:24:40.431Z,51.011196
2022-12-04T10:25:40.395Z,51.011154
2022-12-04T10:26:40.412Z,51.011005
2022-12-04T10:27:40.371Z,51.011009
2022-12-04T10:28:40.383Z,51.011234
2022-12-04T10:29:40.420Z,51.011276
2022-12-04T10:30:40.417Z,51.011292
2022-12-04T10:31:40.426Z,51.011250
2022-12-04T10:32:40.359Z,51.011269
2022-12-04T10:33:40.392Z,51.011398
2022-12-04T10:34:45.458Z,51.011314
2022-12-04T10:35:42.428Z,51.011318
2022-12-04T10:36:40.366Z,51.011368
2022-12-04T10:37:40.353Z,51.011227
2022-12-04T10:38:40.335Z,51.010990
2022-12-04T10:39:40.375Z,51.010860
2022-12-04T10:40:40.336Z,51.010883
2022-12-04T10:41:40.321Z,51.010723
2022-12-04T10:42:40.287Z,51.011017
2022-12-04T10:43:40.302Z,51.011032
2022-12-04T10:44:40.302Z,51.010963
2022-12-04T10:45:40.470Z,51.010902
2022-12-04T10:46:45.534Z,51.010975
2022-12-04T10:47:41.272Z,51.010845
2022-12-04T10:48:40.249Z,51.010948
2022-12-04T10:49:40.295Z,51.011036
2022-12-04T10:50:40.273Z,51.011066
2022-12-04T10:51:40.250Z,51.011158
2022-12-04T10:52:40.264Z,51.011116
2022-12-04T10:53:40.214Z,51.011200
2022-12-04T10:54:40.222Z,51.011150
2022-12-04T10:55:40.223Z,51.011158
2022-12-04T10:56:40.234Z,51.011127
2022-12-04T10:57:40.197Z,51.011112
2022-12-04T10:58:40.231Z,51.011051
2022-12-04T10:59:40.199Z,51.011009
2022-12-04T11:00:40.188Z,51.011036
2022-12-04T11:01:40.288Z,51.011024
2022-12-04T11:02:40.224Z,51.011005
2022-12-04T11:03:40.281Z,51.011093
2022-12-04T11:04:40.168Z,51.010948
2022-12-04T11:05:40.148Z,51.010941
2022-12-04T11:06:40.150Z,51.010975
2022-12-04T11:07:40.179Z,51.010891
2022-12-04T11:08:40.127Z,51.010998
2022-12-04T11:09:40.156Z,51.011002
2022-12-04T11:10:40.136Z,51.011063
2022-12-04T11:11:40.281Z,51.010971
2022-12-04T11:12:40.110Z,51.010983
2022-12-04T11:13:40.119Z,51.011024
2022-12-04T11:14:45.476Z,51.011021
2022-12-04T11:15:42.568Z,51.010963
2022-12-04T11:16:40.246Z,51.010933
2022-12-04T11:17:40.052Z,51.010937
2022-12-04T11:18:40.081Z,51.010990
2022-12-04T11:19:40.056Z,51.010975
2022-12-04T11:20:44.029Z,51.010918
2022-12-04T11:21:42.067Z,51.010967
2022-12-04T11:22:40.066Z,51.010971
2022-12-04T11:23:40.054Z,51.010979
2022-12-04T11:24:45.081Z,51.010902